Aviation Digital Data Service (ADDS)

Output produced by METARs form (1233 UTC 22 March 2019)
found at http://www.aviationweather.gov/metar/data/
 
METAR text: CYFB 221200Z 32016KT 30SM IC DRSN FEW060 M32/M36 A2972 RMK SC1 SC TR SLP070
Conditions at: CYFB (FROBISHER/IQALUI, NU, CA) observed 1200 UTC 22 March 2019
Temperature: -32.0°C (-26°F)
Dewpoint: -36.0°C (-33°F) [RH = 68%]
Pressure (altimeter): 29.72 inches Hg (1006.5 mb)
[Sea-level pressure: 1007.0 mb]
Winds: from the NW (320 degrees) at 18 MPH (16 knots; 8.2 m/s)
Visibility: 30 miles (48 km)
Ceiling: at least 12,000 feet AGL
Clouds: few clouds at 6000 feet AGL
Weather: IC DRSN  (ice crystals, low drifting snow)

METAR text: CYFB 221100Z 32015G20KT 30SM IC DRSN FEW060 FEW280 M32/M37 A2970 RMK SC1CI1 SC TR CI TR SLP063
Conditions at: CYFB (FROBISHER/IQALUI, NU, CA) observed 1100 UTC 22 March 2019
Temperature: -32.0°C (-26°F)
Dewpoint: -37.0°C (-35°F) [RH = 61%]
Pressure (altimeter): 29.70 inches Hg (1005.8 mb)
[Sea-level pressure: 1006.3 mb]
Winds: from the NW (320 degrees) at 17 MPH (15 knots; 7.7 m/s)
gusting to 23 MPH (20 knots; 10.3 m/s)
Visibility: 30 miles (48 km)
Ceiling: at least 12,000 feet AGL
Clouds: few clouds at 6000 feet AGL
few clouds at 28000 feet AGL
Weather: IC DRSN  (ice crystals, low drifting snow)

METAR text: CYFB 221000Z 33014KT 20SM IC DRSN FEW060 FEW280 M31/M36 A2967 RMK SC1CI1 SC TR CI TR SLP055
Conditions at: CYFB (FROBISHER/IQALUI, NU, CA) observed 1000 UTC 22 March 2019
Temperature: -31.0°C (-24°F)
Dewpoint: -36.0°C (-33°F) [RH = 61%]
Pressure (altimeter): 29.67 inches Hg (1004.8 mb)
[Sea-level pressure: 1005.5 mb]
Winds: from the NNW (330 degrees) at 16 MPH (14 knots; 7.2 m/s)
Visibility: 20 miles (32 km)
Ceiling: at least 12,000 feet AGL
Clouds: few clouds at 6000 feet AGL
few clouds at 28000 feet AGL
Weather: IC DRSN  (ice crystals, low drifting snow)

METAR text: CYFB 220900Z 32018KT 15SM IC DRSN FEW280 M31/M36 A2965 RMK CI1 CI TR SLP047
Conditions at: CYFB (FROBISHER/IQALUI, NU, CA) observed 0900 UTC 22 March 2019
Temperature: -31.0°C (-24°F)
Dewpoint: -36.0°C (-33°F) [RH = 61%]
Pressure (altimeter): 29.65 inches Hg (1004.1 mb)
[Sea-level pressure: 1004.7 mb]
Winds: from the NW (320 degrees) at 21 MPH (18 knots; 9.3 m/s)
Visibility: 15 miles (24 km)
Ceiling: at least 12,000 feet AGL
Clouds: few clouds at 28000 feet AGL
Weather: IC DRSN  (ice crystals, low drifting snow)

METAR text: CYFB 220800Z 32011KT 15SM IC FEW280 M30/M35 A2964 RMK CI1 CI TR SLP043
Conditions at: CYFB (FROBISHER/IQALUI, NU, CA) observed 0800 UTC 22 March 2019
Temperature: -30.0°C (-22°F)
Dewpoint: -35.0°C (-31°F) [RH = 62%]
Pressure (altimeter): 29.64 inches Hg (1003.8 mb)
[Sea-level pressure: 1004.3 mb]
Winds: from the NW (320 degrees) at 13 MPH (11 knots; 5.7 m/s)
Visibility: 15 miles (24 km)
Ceiling: at least 12,000 feet AGL
Clouds: few clouds at 28000 feet AGL
Weather: IC  (ice crystals)

METAR text: CYFB 220700Z 32009KT 15SM IC FEW280 M30/M35 A2961 RMK CI1 CI TR SLP034
Conditions at: CYFB (FROBISHER/IQALUI, NU, CA) observed 0700 UTC 22 March 2019
Temperature: -30.0°C (-22°F)
Dewpoint: -35.0°C (-31°F) [RH = 62%]
Pressure (altimeter): 29.61 inches Hg (1002.8 mb)
[Sea-level pressure: 1003.4 mb]
Winds: from the NW (320 degrees) at 10 MPH (9 knots; 4.6 m/s)
Visibility: 15 miles (24 km)
Ceiling: at least 12,000 feet AGL
Clouds: few clouds at 28000 feet AGL
Weather: IC  (ice crystals)

METAR text: CYFB 220600Z 32010KT 15SM IC DRSN FEW280 M29/M34 A2959 RMK CI1 CI TR SLP028
Conditions at: CYFB (FROBISHER/IQALUI, NU, CA) observed 0600 UTC 22 March 2019
Temperature: -29.0°C (-20°F)
Dewpoint: -34.0°C (-29°F) [RH = 62%]
Pressure (altimeter): 29.59 inches Hg (1002.1 mb)
[Sea-level pressure: 1002.8 mb]
Winds: from the NW (320 degrees) at 12 MPH (10 knots; 5.1 m/s)
Visibility: 15 miles (24 km)
Ceiling: at least 12,000 feet AGL
Clouds: few clouds at 28000 feet AGL
Weather: IC DRSN  (ice crystals, low drifting snow)

METAR text: CYFB 220500Z 33009KT 15SM IC FEW280 M29/M33 A2957 RMK CI2 SLP022
Conditions at: CYFB (FROBISHER/IQALUI, NU, CA) observed 0500 UTC 22 March 2019
Temperature: -29.0°C (-20°F)
Dewpoint: -33.0°C (-27°F) [RH = 68%]
Pressure (altimeter): 29.57 inches Hg (1001.4 mb)
[Sea-level pressure: 1002.2 mb]
Winds: from the NNW (330 degrees) at 10 MPH (9 knots; 4.6 m/s)
Visibility: 15 miles (24 km)
Ceiling: at least 12,000 feet AGL
Clouds: few clouds at 28000 feet AGL
Weather: IC  (ice crystals)

METAR text: CYFB 220400Z 33007KT 15SM IC SCT280 M28/M32 A2955 RMK CI3 SLP015
Conditions at: CYFB (FROBISHER/IQALUI, NU, CA) observed 0400 UTC 22 March 2019
Temperature: -28.0°C (-18°F)
Dewpoint: -32.0°C (-26°F) [RH = 69%]
Pressure (altimeter): 29.55 inches Hg (1000.8 mb)
[Sea-level pressure: 1001.5 mb]
Winds: from the NNW (330 degrees) at 8 MPH (7 knots; 3.6 m/s)
Visibility: 15 miles (24 km)
Ceiling: at least 12,000 feet AGL
Clouds: scattered clouds at 28000 feet AGL
Weather: IC  (ice crystals)

METAR text: CYFB 220323Z 33008KT 15SM IC SKC M28/M32 A2954 RMK SLP012
Conditions at: CYFB (FROBISHER/IQALUI, NU, CA) observed 0323 UTC 22 March 2019
Temperature: -28.0°C (-18°F)
Dewpoint: -32.0°C (-26°F) [RH = 69%]
Pressure (altimeter): 29.54 inches Hg (1000.4 mb)
[Sea-level pressure: 1001.2 mb]
Winds: from the NNW (330 degrees) at 9 MPH (8 knots; 4.1 m/s)
Visibility: 15 miles (24 km)
Ceiling: at least 12,000 feet AGL
Clouds: clear skies
Weather: IC  (ice crystals)

METAR text: CYFB 220313Z 33007KT 5SM IC BKN007 M27/M31 A2954 RMK IC4SC1 SLP012
Conditions at: CYFB (FROBISHER/IQALUI, NU, CA) observed 0313 UTC 22 March 2019
Temperature: -27.0°C (-17°F)
Dewpoint: -31.0°C (-24°F) [RH = 69%]
Pressure (altimeter): 29.54 inches Hg (1000.4 mb)
[Sea-level pressure: 1001.2 mb]
Winds: from the NNW (330 degrees) at 8 MPH (7 knots; 3.6 m/s)
Visibility: 5 miles ( 8 km)
Ceiling: 700 feet AGL
Clouds: broken clouds at 700 feet AGL
Weather: IC  (ice crystals)

METAR text: CYFB 220309Z 33006KT 10SM IC SCT007 M26/M31 A2955 RMK IC3SC1 SLP013
Conditions at: CYFB (FROBISHER/IQALUI, NU, CA) observed 0309 UTC 22 March 2019
Temperature: -26.0°C (-15°F)
Dewpoint: -31.0°C (-24°F) [RH = 63%]
Pressure (altimeter): 29.55 inches Hg (1000.8 mb)
[Sea-level pressure: 1001.3 mb]
Winds: from the NNW (330 degrees) at 7 MPH (6 knots; 3.1 m/s)
Visibility: 10 or more miles (16+ km)
Ceiling: at least 12,000 feet AGL
Clouds: scattered clouds at 700 feet AGL
Weather: IC  (ice crystals)

METAR text: CYFB 220300Z 35005KT 15SM IC SCT020 M25/M30 A2954 RMK SC3 SLP011
Conditions at: CYFB (FROBISHER/IQALUI, NU, CA) observed 0300 UTC 22 March 2019
Temperature: -25.0°C (-13°F)
Dewpoint: -30.0°C (-22°F) [RH = 63%]
Pressure (altimeter): 29.54 inches Hg (1000.4 mb)
[Sea-level pressure: 1001.1 mb]
Winds: from the N (350 degrees) at 6 MPH (5 knots; 2.6 m/s)
Visibility: 15 miles (24 km)
Ceiling: at least 12,000 feet AGL
Clouds: scattered clouds at 2000 feet AGL
Weather: IC  (ice crystals)

METAR text: CYFB 220200Z 35003KT 320V020 6SM IC BKN027 M25/M29 A2953 RMK IC6SC1 SLP006
Conditions at: CYFB (FROBISHER/IQALUI, NU, CA) observed 0200 UTC 22 March 2019
Temperature: -25.0°C (-13°F)
Dewpoint: -29.0°C (-20°F) [RH = 69%]
Pressure (altimeter): 29.53 inches Hg (1000.1 mb)
[Sea-level pressure: 1000.6 mb]
Winds: from the N (350 degrees) at 3 MPH (3 knots; 1.5 m/s)
Visibility: 6 miles (10 km)
Ceiling: 2700 feet AGL
Clouds: broken clouds at 2700 feet AGL
Weather: IC  (ice crystals)

METAR text: CYFB 220121Z 00000KT 5SM IC BKN017 M23/M28 A2952 RMK IC6SC1 SLP001
Conditions at: CYFB (FROBISHER/IQALUI, NU, CA) observed 0121 UTC 22 March 2019
Temperature: -23.0°C (-9°F)
Dewpoint: -28.0°C (-18°F) [RH = 64%]
Pressure (altimeter): 29.52 inches Hg (999.7 mb)
[Sea-level pressure: 1000.1 mb]
Winds: calm
Visibility: 5 miles ( 8 km)
Ceiling: 1700 feet AGL
Clouds: broken clouds at 1700 feet AGL
Weather: IC  (ice crystals)

METAR text: CYFB 220100Z VRB06KT 15SM IC SCT088 M22/M27 A2951 RMK AC3 SLP999
Conditions at: CYFB (FROBISHER/IQALUI, NU, CA) observed 0100 UTC 22 March 2019
Temperature: -22.0°C (-8°F)
Dewpoint: -27.0°C (-17°F) [RH = 64%]
Pressure (altimeter): 29.51 inches Hg (999.4 mb)
[Sea-level pressure:  999.9 mb]
Winds: variable direction winds at 7 MPH (6 knots; 3.1 m/s)
Visibility: 15 miles (24 km)
Ceiling: at least 12,000 feet AGL
Clouds: scattered clouds at 8800 feet AGL
Weather: IC  (ice crystals)

METAR text: CYFB 220000Z 10003KT 080V170 15SM IC SCT120 M23/M28 A2949 RMK AC3 SLP994
Conditions at: CYFB (FROBISHER/IQALUI, NU, CA) observed 0000 UTC 22 March 2019
Temperature: -23.0°C (-9°F)
Dewpoint: -28.0°C (-18°F) [RH = 64%]
Pressure (altimeter): 29.49 inches Hg (998.7 mb)
[Sea-level pressure:  999.4 mb]
Winds: from the E (100 degrees) at 3 MPH (3 knots; 1.5 m/s)
Visibility: 15 miles (24 km)
Ceiling: at least 12,000 feet AGL
Clouds: scattered clouds at 12000 feet AGL
Weather: IC  (ice crystals)

METAR text: CYFB 212300Z 04003KT 020V090 20SM IC SCT120 M21/M26 A2949 RMK AC3 SLP991
Conditions at: CYFB (FROBISHER/IQALUI, NU, CA) observed 2300 UTC 21 March 2019
Temperature: -21.0°C (-6°F)
Dewpoint: -26.0°C (-15°F) [RH = 64%]
Pressure (altimeter): 29.49 inches Hg (998.7 mb)
[Sea-level pressure:  999.1 mb]
Winds: from the NE (40 degrees) at 3 MPH (3 knots; 1.5 m/s)
Visibility: 20 miles (32 km)
Ceiling: at least 12,000 feet AGL
Clouds: scattered clouds at 12000 feet AGL
Weather: IC  (ice crystals)

METAR text: CYFB 212200Z 35005KT 20SM IC FEW120 M23/M26 A2947 RMK AC1 SLP987
Conditions at: CYFB (FROBISHER/IQALUI, NU, CA) observed 2200 UTC 21 March 2019
Temperature: -23.0°C (-9°F)
Dewpoint: -26.0°C (-15°F) [RH = 76%]
Pressure (altimeter): 29.47 inches Hg (998.1 mb)
[Sea-level pressure:  998.7 mb]
Winds: from the N (350 degrees) at 6 MPH (5 knots; 2.6 m/s)
Visibility: 20 miles (32 km)
Ceiling: at least 12,000 feet AGL
Clouds: few clouds at 12000 feet AGL
Weather: IC  (ice crystals)

METAR text: CYFB 212100Z 31006KT 20SM IC FEW120 M21/M25 A2945 RMK AC1 SLP980
Conditions at: CYFB (FROBISHER/IQALUI, NU, CA) observed 2100 UTC 21 March 2019
Temperature: -21.0°C (-6°F)
Dewpoint: -25.0°C (-13°F) [RH = 70%]
Pressure (altimeter): 29.45 inches Hg (997.4 mb)
[Sea-level pressure:  998.0 mb]
Winds: from the NW (310 degrees) at 7 MPH (6 knots; 3.1 m/s)
Visibility: 20 miles (32 km)
Ceiling: at least 12,000 feet AGL
Clouds: few clouds at 12000 feet AGL
Weather: IC  (ice crystals)

METAR text: CYFB 212000Z 29004KT 20SM IC FEW120 M21/M25 A2945 RMK AC2 SLP979
Conditions at: CYFB (FROBISHER/IQALUI, NU, CA) observed 2000 UTC 21 March 2019
Temperature: -21.0°C (-6°F)
Dewpoint: -25.0°C (-13°F) [RH = 70%]
Pressure (altimeter): 29.45 inches Hg (997.4 mb)
[Sea-level pressure:  997.9 mb]
Winds: from the WNW (290 degrees) at 5 MPH (4 knots; 2.1 m/s)
Visibility: 20 miles (32 km)
Ceiling: at least 12,000 feet AGL
Clouds: few clouds at 12000 feet AGL
Weather: IC  (ice crystals)

METAR text: CYFB 211900Z 31005KT 20SM IC FEW120 M21/M26 A2945 RMK AC2 SLP978
Conditions at: CYFB (FROBISHER/IQALUI, NU, CA) observed 1900 UTC 21 March 2019
Temperature: -21.0°C (-6°F)
Dewpoint: -26.0°C (-15°F) [RH = 64%]
Pressure (altimeter): 29.45 inches Hg (997.4 mb)
[Sea-level pressure:  997.8 mb]
Winds: from the NW (310 degrees) at 6 MPH (5 knots; 2.6 m/s)
Visibility: 20 miles (32 km)
Ceiling: at least 12,000 feet AGL
Clouds: few clouds at 12000 feet AGL
Weather: IC  (ice crystals)

METAR text: CYFB 211800Z 30002KT 20SM IC FEW120 FEW250 M22/M26 A2945 RMK AC1CI1 SLP978
Conditions at: CYFB (FROBISHER/IQALUI, NU, CA) observed 1800 UTC 21 March 2019
Temperature: -22.0°C (-8°F)
Dewpoint: -26.0°C (-15°F) [RH = 70%]
Pressure (altimeter): 29.45 inches Hg (997.4 mb)
[Sea-level pressure:  997.8 mb]
Winds: from the WNW (300 degrees) at 2 MPH (2 knots; 1.0 m/s)
Visibility: 20 miles (32 km)
Ceiling: at least 12,000 feet AGL
Clouds: few clouds at 12000 feet AGL
few clouds at 25000 feet AGL
Weather: IC  (ice crystals)

METAR text: CYFB 211700Z 31005KT 8SM IC FEW040 SCT250 M23/M27 A2946 RMK SC1CI3 SLP982
Conditions at: CYFB (FROBISHER/IQALUI, NU, CA) observed 1700 UTC 21 March 2019
Temperature: -23.0°C (-9°F)
Dewpoint: -27.0°C (-17°F) [RH = 70%]
Pressure (altimeter): 29.46 inches Hg (997.7 mb)
[Sea-level pressure:  998.2 mb]
Winds: from the NW (310 degrees) at 6 MPH (5 knots; 2.6 m/s)
Visibility: 8 miles (13 km)
Ceiling: at least 12,000 feet AGL
Clouds: few clouds at 4000 feet AGL
scattered clouds at 25000 feet AGL
Weather: IC  (ice crystals)

METAR text: CYFB 211600Z 31004KT 5SM IC FEW040 SCT250 M24/M28 A2947 RMK SC2CI2 SLP988
Conditions at: CYFB (FROBISHER/IQALUI, NU, CA) observed 1600 UTC 21 March 2019
Temperature: -24.0°C (-11°F)
Dewpoint: -28.0°C (-18°F) [RH = 70%]
Pressure (altimeter): 29.47 inches Hg (998.1 mb)
[Sea-level pressure:  998.8 mb]
Winds: from the NW (310 degrees) at 5 MPH (4 knots; 2.1 m/s)
Visibility: 5 miles ( 8 km)
Ceiling: at least 12,000 feet AGL
Clouds: few clouds at 4000 feet AGL
scattered clouds at 25000 feet AGL
Weather: IC  (ice crystals)

METAR text: CYFB 211500Z 29002KT 7SM IC BKN040 BKN120 M25/M29 A2949 RMK SC5AC2 SLP993
Conditions at: CYFB (FROBISHER/IQALUI, NU, CA) observed 1500 UTC 21 March 2019
Temperature: -25.0°C (-13°F)
Dewpoint: -29.0°C (-20°F) [RH = 69%]
Pressure (altimeter): 29.49 inches Hg (998.7 mb)
[Sea-level pressure:  999.3 mb]
Winds: from the WNW (290 degrees) at 2 MPH (2 knots; 1.0 m/s)
Visibility: 7 miles (11 km)
Ceiling: 4000 feet AGL
Clouds: broken clouds at 4000 feet AGL
broken clouds at 12000 feet AGL
Weather: IC  (ice crystals)

METAR text: CYFB 211414Z 33003KT 8SM -SN BKN060 BKN120 M26/M31 A2950 RMK SC6AC1 SLP997
Conditions at: CYFB (FROBISHER/IQALUI, NU, CA) observed 1414 UTC 21 March 2019
Temperature: -26.0°C (-15°F)
Dewpoint: -31.0°C (-24°F) [RH = 63%]
Pressure (altimeter): 29.50 inches Hg (999.1 mb)
[Sea-level pressure:  999.7 mb]
Winds: from the NNW (330 degrees) at 3 MPH (3 knots; 1.5 m/s)
Visibility: 8 miles (13 km)
Ceiling: 6000 feet AGL
Clouds: broken clouds at 6000 feet AGL
broken clouds at 12000 feet AGL
Weather: -SN  (light snow)

METAR text: CYFB 211400Z 33003KT 8SM IC BKN060 BKN120 M27/M31 A2950 RMK SC5AC2 SLP998
Conditions at: CYFB (FROBISHER/IQALUI, NU, CA) observed 1400 UTC 21 March 2019
Temperature: -27.0°C (-17°F)
Dewpoint: -31.0°C (-24°F) [RH = 69%]
Pressure (altimeter): 29.50 inches Hg (999.1 mb)
[Sea-level pressure:  999.8 mb]
Winds: from the NNW (330 degrees) at 3 MPH (3 knots; 1.5 m/s)
Visibility: 8 miles (13 km)
Ceiling: 6000 feet AGL
Clouds: broken clouds at 6000 feet AGL
broken clouds at 12000 feet AGL
Weather: IC  (ice crystals)

METAR text: CYFB 211300Z 00000KT 15SM IC BKN100 M28/M32 A2951 RMK AC6 SLP001
Conditions at: CYFB (FROBISHER/IQALUI, NU, CA) observed 1300 UTC 21 March 2019
Temperature: -28.0°C (-18°F)
Dewpoint: -32.0°C (-26°F) [RH = 69%]
Pressure (altimeter): 29.51 inches Hg (999.4 mb)
[Sea-level pressure: 1000.1 mb]
Winds: calm
Visibility: 15 miles (24 km)
Ceiling: 10000 feet AGL
Clouds: broken clouds at 10000 feet AGL
Weather: IC  (ice crystals)

METAR text: CYFB 211200Z 33003KT 15SM IC FEW060 FEW140 BKN250 M29/M32 A2952 RMK SC1AC1CI3 SLP005
Conditions at: CYFB (FROBISHER/IQALUI, NU, CA) observed 1200 UTC 21 March 2019
Temperature: -29.0°C (-20°F)
Dewpoint: -32.0°C (-26°F) [RH = 75%]
Pressure (altimeter): 29.52 inches Hg (999.7 mb)
[Sea-level pressure: 1000.5 mb]
Winds: from the NNW (330 degrees) at 3 MPH (3 knots; 1.5 m/s)
Visibility: 15 miles (24 km)
Ceiling: 25000 feet AGL
Clouds: few clouds at 6000 feet AGL
few clouds at 14000 feet AGL
broken clouds at 25000 feet AGL
Weather: IC  (ice crystals)

METAR text: CYFB 211100Z 00000KT 5SM -SN BKN039 BKN044 BKN061 M29/M32 A2954 RMK SN2SC3SC1SC1 SLP009
Conditions at: CYFB (FROBISHER/IQALUI, NU, CA) observed 1100 UTC 21 March 2019
Temperature: -29.0°C (-20°F)
Dewpoint: -32.0°C (-26°F) [RH = 75%]
Pressure (altimeter): 29.54 inches Hg (1000.4 mb)
[Sea-level pressure: 1000.9 mb]
Winds: calm
Visibility: 5 miles ( 8 km)
Ceiling: 3900 feet AGL
Clouds: broken clouds at 3900 feet AGL
broken clouds at 4400 feet AGL
broken clouds at 6100 feet AGL
Weather: -SN  (light snow)

METAR text: CYFB 211020Z 00000KT 3SM -SN SCT037 BKN045 M29/M33 A2955 RMK SN3SC1SC3 SLP013
Conditions at: CYFB (FROBISHER/IQALUI, NU, CA) observed 1020 UTC 21 March 2019
Temperature: -29.0°C (-20°F)
Dewpoint: -33.0°C (-27°F) [RH = 68%]
Pressure (altimeter): 29.55 inches Hg (1000.8 mb)
[Sea-level pressure: 1001.3 mb]
Winds: calm
Visibility: 3 miles ( 5 km)
Ceiling: 4500 feet AGL
Clouds: scattered clouds at 3700 feet AGL
broken clouds at 4500 feet AGL
Weather: -SN  (light snow)

METAR text: CYFB 211000Z 00000KT 5SM -SN BKN037 BKN063 M29/M33 A2955 RMK SN3SC2SC2 SLP015
Conditions at: CYFB (FROBISHER/IQALUI, NU, CA) observed 1000 UTC 21 March 2019
Temperature: -29.0°C (-20°F)
Dewpoint: -33.0°C (-27°F) [RH = 68%]
Pressure (altimeter): 29.55 inches Hg (1000.8 mb)
[Sea-level pressure: 1001.5 mb]
Winds: calm
Visibility: 5 miles ( 8 km)
Ceiling: 3700 feet AGL
Clouds: broken clouds at 3700 feet AGL
broken clouds at 6300 feet AGL
Weather: -SN  (light snow)

METAR text: CYFB 210900Z 00000KT 5SM -SN SCT029 BKN037 OVC066 M29/M32 A2957 RMK SN4SC1SC1AC3 SC TR MOON DIMLY VISBL SLP019
Conditions at: CYFB (FROBISHER/IQALUI, NU, CA) observed 0900 UTC 21 March 2019
Temperature: -29.0°C (-20°F)
Dewpoint: -32.0°C (-26°F) [RH = 75%]
Pressure (altimeter): 29.57 inches Hg (1001.4 mb)
[Sea-level pressure: 1001.9 mb]
Winds: calm
Visibility: 5 miles ( 8 km)
Ceiling: 3700 feet AGL
Clouds: scattered clouds at 2900 feet AGL
broken clouds at 3700 feet AGL
overcast cloud deck at 6600 feet AGL
Weather: -SN  (light snow)

METAR text: CYFB 210800Z 00000KT 5SM -SN BKN029 BKN037 OVC066 M29/M32 A2959 RMK SN2SC3SC2AC1 SLP027
Conditions at: CYFB (FROBISHER/IQALUI, NU, CA) observed 0800 UTC 21 March 2019
Temperature: -29.0°C (-20°F)
Dewpoint: -32.0°C (-26°F) [RH = 75%]
Pressure (altimeter): 29.59 inches Hg (1002.1 mb)
[Sea-level pressure: 1002.7 mb]
Winds: calm
Visibility: 5 miles ( 8 km)
Ceiling: 2900 feet AGL
Clouds: broken clouds at 2900 feet AGL
broken clouds at 3700 feet AGL
overcast cloud deck at 6600 feet AGL
Weather: -SN  (light snow)

METAR text: CYFB 210717Z 10003KT 040V130 5SM -SN BKN029 OVC037 M29/M33 A2960 RMK SN3SC3SC2 MOON DIMLY VISBL SLP030
Conditions at: CYFB (FROBISHER/IQALUI, NU, CA) observed 0717 UTC 21 March 2019
Temperature: -29.0°C (-20°F)
Dewpoint: -33.0°C (-27°F) [RH = 68%]
Pressure (altimeter): 29.60 inches Hg (1002.5 mb)
[Sea-level pressure: 1003.0 mb]
Winds: from the E (100 degrees) at 3 MPH (3 knots; 1.5 m/s)
Visibility: 5 miles ( 8 km)
Ceiling: 2900 feet AGL
Clouds: broken clouds at 2900 feet AGL
overcast cloud deck at 3700 feet AGL
Weather: -SN  (light snow)

METAR text: CYFB 210700Z 04002KT 5SM IC BKN030 OVC037 M29/M33 A2960 RMK IC3SC4SC1 MOON DIMLY VISBL SLP031
Conditions at: CYFB (FROBISHER/IQALUI, NU, CA) observed 0700 UTC 21 March 2019
Temperature: -29.0°C (-20°F)
Dewpoint: -33.0°C (-27°F) [RH = 68%]
Pressure (altimeter): 29.60 inches Hg (1002.5 mb)
[Sea-level pressure: 1003.1 mb]
Winds: from the NE (40 degrees) at 2 MPH (2 knots; 1.0 m/s)
Visibility: 5 miles ( 8 km)
Ceiling: 3000 feet AGL
Clouds: broken clouds at 3000 feet AGL
overcast cloud deck at 3700 feet AGL
Weather: IC  (ice crystals)

METAR text: CYFB 210600Z 00000KT 6SM IC SCT026 BKN044 BKN240 M30/M34 A2962 RMK IC3SC1SC2CI1 SLP036
Conditions at: CYFB (FROBISHER/IQALUI, NU, CA) observed 0600 UTC 21 March 2019
Temperature: -30.0°C (-22°F)
Dewpoint: -34.0°C (-29°F) [RH = 68%]
Pressure (altimeter): 29.62 inches Hg (1003.1 mb)
[Sea-level pressure: 1003.6 mb]
Winds: calm
Visibility: 6 miles (10 km)
Ceiling: 4400 feet AGL
Clouds: scattered clouds at 2600 feet AGL
broken clouds at 4400 feet AGL
broken clouds at 24000 feet AGL
Weather: IC  (ice crystals)

METAR text: CYFB 210539Z 35003KT 6SM IC SCT044 BKN240 M30/M34 A2962 RMK IC3SC1CI1 SLP038
Conditions at: CYFB (FROBISHER/IQALUI, NU, CA) observed 0539 UTC 21 March 2019
Temperature: -30.0°C (-22°F)
Dewpoint: -34.0°C (-29°F) [RH = 68%]
Pressure (altimeter): 29.62 inches Hg (1003.1 mb)
[Sea-level pressure: 1003.8 mb]
Winds: from the N (350 degrees) at 3 MPH (3 knots; 1.5 m/s)
Visibility: 6 miles (10 km)
Ceiling: 24000 feet AGL
Clouds: scattered clouds at 4400 feet AGL
broken clouds at 24000 feet AGL
Weather: IC  (ice crystals)

METAR text: CYFB 210500Z 01002KT 15SM IC FEW044 FEW240 M32/M36 A2963 RMK SC1CI1 SLP041
Conditions at: CYFB (FROBISHER/IQALUI, NU, CA) observed 0500 UTC 21 March 2019
Temperature: -32.0°C (-26°F)
Dewpoint: -36.0°C (-33°F) [RH = 68%]
Pressure (altimeter): 29.63 inches Hg (1003.5 mb)
[Sea-level pressure: 1004.1 mb]
Winds: from the N (10 degrees) at 2 MPH (2 knots; 1.0 m/s)
Visibility: 15 miles (24 km)
Ceiling: at least 12,000 feet AGL
Clouds: few clouds at 4400 feet AGL
few clouds at 24000 feet AGL
Weather: IC  (ice crystals)

METAR text: CYFB 210400Z 36004KT 15SM IC FEW042 FEW240 M32/M36 A2964 RMK SC1CI1 SC TR SLP044
Conditions at: CYFB (FROBISHER/IQALUI, NU, CA) observed 0400 UTC 21 March 2019
Temperature: -32.0°C (-26°F)
Dewpoint: -36.0°C (-33°F) [RH = 68%]
Pressure (altimeter): 29.64 inches Hg (1003.8 mb)
[Sea-level pressure: 1004.4 mb]
Winds: from the N (360 degrees) at 5 MPH (4 knots; 2.1 m/s)
Visibility: 15 miles (24 km)
Ceiling: at least 12,000 feet AGL
Clouds: few clouds at 4200 feet AGL
few clouds at 24000 feet AGL
Weather: IC  (ice crystals)

METAR text: CYFB 210300Z 36005KT 15SM FEW240 M31/M36 A2966 RMK CI2 FROIN SLP051
Conditions at: CYFB (FROBISHER/IQALUI, NU, CA) observed 0300 UTC 21 March 2019
Temperature: -31.0°C (-24°F)
Dewpoint: -36.0°C (-33°F) [RH = 61%]
Pressure (altimeter): 29.66 inches Hg (1004.5 mb)
[Sea-level pressure: 1005.1 mb]
Winds: from the N (360 degrees) at 6 MPH (5 knots; 2.6 m/s)
Visibility: 15 miles (24 km)
Ceiling: at least 12,000 feet AGL
Clouds: few clouds at 24000 feet AGL
Weather: no significant weather observed at this time

METAR text: CYFB 210200Z 36002KT 15SM SCT240 M31/M35 A2968 RMK CI3 SLP057
Conditions at: CYFB (FROBISHER/IQALUI, NU, CA) observed 0200 UTC 21 March 2019
Temperature: -31.0°C (-24°F)
Dewpoint: -35.0°C (-31°F) [RH = 68%]
Pressure (altimeter): 29.68 inches Hg (1005.2 mb)
[Sea-level pressure: 1005.7 mb]
Winds: from the N (360 degrees) at 2 MPH (2 knots; 1.0 m/s)
Visibility: 15 miles (24 km)
Ceiling: at least 12,000 feet AGL
Clouds: scattered clouds at 24000 feet AGL
Weather: no significant weather observed at this time

METAR text: CYFB 210100Z 00000KT 15SM FEW240 M30/M34 A2969 RMK CI2 SLP060
Conditions at: CYFB (FROBISHER/IQALUI, NU, CA) observed 0100 UTC 21 March 2019
Temperature: -30.0°C (-22°F)
Dewpoint: -34.0°C (-29°F) [RH = 68%]
Pressure (altimeter): 29.69 inches Hg (1005.5 mb)
[Sea-level pressure: 1006.0 mb]
Winds: calm
Visibility: 15 miles (24 km)
Ceiling: at least 12,000 feet AGL
Clouds: few clouds at 24000 feet AGL
Weather: no significant weather observed at this time

Forecast for: CYFB (FROBISHER/IQALUI, NU, CA)
Text: TAF CYFB 221138Z 2212/2312 33014KT P6SM IC FEW060
Forecast period: 1200 UTC 22 March 2019 to 0000 UTC 23 March 2019
Forecast type: FROM: standard forecast or significant change
Winds: from the NNW (330 degrees) at 16 MPH (14 knots; 7.2 m/s)
Visibility: 6 or more miles 10+ km)
Ceiling: at least 12,000 feet AGL
Clouds: few clouds at 6000 feet AGL
Weather: IC  (ice crystals)
Text: BECMG 2300/2302 VRB03KT
Forecast period: 0000 to 0400 UTC 23 March 2019
Forecast type: BECOMING: Conditions expected to become as follows by 0200 UTC 23 March 2019
Winds: variable direction winds at 3 MPH (3 knots; 1.5 m/s)
Visibility: 6 or more miles 10+ km)
Ceiling: at least 12,000 feet AGL
Clouds: few clouds at 6000 feet AGL
Weather: IC  (ice crystals)
Text: BECMG 2304/2306 13010KT
Forecast period: 0400 to 0800 UTC 23 March 2019
Forecast type: BECOMING: Conditions expected to become as follows by 0600 UTC 23 March 2019
Winds: from the SE (130 degrees) at 12 MPH (10 knots; 5.1 m/s)
Visibility: 6 or more miles 10+ km)
Ceiling: at least 12,000 feet AGL
Clouds: few clouds at 6000 feet AGL
Weather: IC  (ice crystals)
Text: FM230800 13015KT 4SM -SN BKN020
Forecast period: 0800 to 1200 UTC 23 March 2019
Forecast type: FROM: standard forecast or significant change
Winds: from the SE (130 degrees) at 17 MPH (15 knots; 7.7 m/s)
Visibility: 4 miles (6 km)
Ceiling: 2000 feet AGL
Clouds: broken clouds at 2000 feet AGL
Weather: -SN  (light snow)
Text: BECMG 2308/2310 13020KT
Forecast period: 0800 to 1000 UTC 23 March 2019
Forecast type: BECOMING: Conditions expected to become as follows by 1000 UTC 23 March 2019
Winds: from the SE (130 degrees) at 23 MPH (20 knots; 10.3 m/s)
Visibility: 4 miles (6 km)
Ceiling: 2000 feet AGL
Clouds: broken clouds at 2000 feet AGL
Weather: -SN  (light snow)
Text: BECMG 2310/2312 13025G35KT RMK NXT FCST BY 221800Z
Forecast period: 1000 to 1200 UTC 23 March 2019
Forecast type: BECOMING: Conditions expected to become as follows by 1200 UTC 23 March 2019
Winds: from the SE (130 degrees) at 29 MPH (25 knots; 12.9 m/s)
gusting to 40 MPH (35 knots; 18.0 m/s)
Visibility: 4 miles (6 km)
Ceiling: 2000 feet AGL
Clouds: broken clouds at 2000 feet AGL
Weather: -SN  (light snow)